SBSJ

Professor Urbano Ernesto Stumpf Airport

São José Dos Campos, Brazil
TAF SBSJ 170230Z 1706/1806 10005KT 7000 BKN012 TN16/1708Z TX28/1717Z PROB40 1707/1711 4000 BR BKN007 BECMG 1711/1713 07010KT 8000 SCT020 BECMG 1714/1716 15015KT 9999 SCT030 BECMG 1721/1723 10010KT FEW025 BECMG 1801/1803 08007KT SCT017 RMK PGB
Issued Valid From Valid To
Nov-17 @ 02:30 UTC
(7 hours ago)
Nov-17 @ 06:00 UTC
(3 hours ago)
Nov-18 @ 06:00 UTC
(in 21 hours)
Nov-17 @ 06:00 to Nov-17 @ 11:00
TAF SBSJ 170230Z 1706/1806 10005KT 7000 BKN012 TN16/1708Z TX28/1717Z
Wind Visibility Clouds
100° at 5 knots 7,001 meters
  • Broken at 1,200' AGL
Probable  (Probability 40%) Nov-17 @ 07:00 to Nov-17 @ 11:00
PROB40 1707/1711 4000 BR BKN007
Visibility Clouds Conditions
4,007 meters
  • Broken at 700' AGL
  • Mist
Becoming Nov-17 @ 11:00 to Nov-17 @ 14:00
BECMG 1711/1713 07010KT 8000 SCT020
Wind Visibility Clouds
70° at 10 knots 7,998 meters
  • Scattered at 2,000' AGL
Becoming Nov-17 @ 14:00 to Nov-17 @ 21:00
BECMG 1714/1716 15015KT 9999 SCT030
Wind Visibility Clouds
150° at 15 knots 10,000+ meters
  • Scattered at 3,000' AGL
Becoming Nov-17 @ 21:00 to Nov-18 @ 01:00
BECMG 1721/1723 10010KT FEW025
Wind Visibility Clouds
100° at 10 knots 10,000+ meters
  • Few at 2,500' AGL
Becoming Nov-18 @ 01:00 to Nov-18 @ 06:00
BECMG 1801/1803 08007KT SCT017 RMK PGB
Wind Visibility Clouds
80° at 7 knots 10,000+ meters
  • Scattered at 1,700' AGL
TAF SBSJ 170230Z 1706/1806 10005KT 7000 BKN012 TN16/1708Z TX28/1717Z PROB40 1707/1711 4000 BR BKN007 BECMG 1711/1713 07010KT 8000 SCT020 BECMG 1714/1716 15015KT 9999 SCT030 BECMG 1721/1723 10010KT FEW025 BECMG 1801/1803 08007KT SCT017 RMK PGB
Issued Nov-17 @ 02:30 UTC
(7 hours ago)
Valid From Nov-17 @ 06:00 UTC
(3 hours ago)
Valid To Nov-18 @ 06:00 UTC
(in 21 hours)
Nov-17 @ 06:00 - Nov-17 @ 11:00
Wind Visibility
100° at 5 knots 7,001 meters
Clouds
  • Broken at 1,200' AGL
Probability 40% Probable Nov-17 @ 07:00 - Nov-17 @ 11:00
Clouds
  • Broken at 700' AGL
Conditions
  • Mist
Becoming Nov-17 @ 11:00 - Nov-17 @ 14:00
Wind Visibility
70° at 10 knots 7,998 meters
Clouds
  • Scattered at 2,000' AGL
Becoming Nov-17 @ 14:00 - Nov-17 @ 21:00
Wind Visibility
150° at 15 knots 10,000+ meters
Clouds
  • Scattered at 3,000' AGL
Becoming Nov-17 @ 21:00 - Nov-18 @ 01:00
Wind Visibility
100° at 10 knots 10,000+ meters
Clouds
  • Few at 2,500' AGL
Becoming Nov-18 @ 01:00 - Nov-18 @ 06:00
Wind Visibility
80° at 7 knots 10,000+ meters
Clouds
  • Scattered at 1,700' AGL